createdAt,value
2024-05-09T00:01:33.228Z,97648.09
2024-05-09T00:04:03.400Z,97648.59
2024-05-09T00:06:36.112Z,97640.69
2024-05-09T00:09:06.144Z,97638.09
2024-05-09T00:11:43.737Z,97641.25
2024-05-09T00:14:13.989Z,97630.97
2024-05-09T00:17:02.233Z,97633.03
2024-05-09T00:19:33.914Z,97639.69
2024-05-09T00:22:07.134Z,97630.53
2024-05-09T00:24:39.849Z,97630.28
2024-05-09T00:27:12.690Z,97636.88
2024-05-09T00:29:43.298Z,97633.41
2024-05-09T00:32:14.312Z,97630.34
2024-05-09T00:34:47.540Z,97624.59
2024-05-09T00:37:21.993Z,97630.88
2024-05-09T00:39:52.031Z,97633.50
2024-05-09T00:42:22.213Z,97632.41
2024-05-09T00:44:52.176Z,97617.25
2024-05-09T00:47:22.608Z,97622.47
2024-05-09T00:49:52.983Z,97620.91
2024-05-09T00:52:28.188Z,97614.88
2024-05-09T00:54:59.501Z,97613.75
2024-05-09T00:57:30.529Z,97614.88
2024-05-09T01:00:00.621Z,97619.34
2024-05-09T01:02:31.044Z,97616.16
2024-05-09T01:05:01.320Z,97616.03
2024-05-09T01:07:34.173Z,97624.38
2024-05-09T01:10:05.545Z,97619.97
2024-05-09T01:12:37.128Z,97618.63
2024-05-09T01:15:07.927Z,97616.06
2024-05-09T01:17:38.226Z,97616.91
2024-05-09T01:20:12.946Z,97611.31
2024-05-09T01:22:54.071Z,97611.78
2024-05-09T01:25:26.743Z,97608.66
2024-05-09T01:27:56.742Z,97615.34
2024-05-09T01:30:33.807Z,97616.41
2024-05-09T01:33:08.464Z,97611.34
2024-05-09T01:35:41.841Z,97605.84
2024-05-09T01:38:13.983Z,97607.47
2024-05-09T01:40:48.101Z,97596.16
2024-05-09T01:43:18.476Z,97587.16
2024-05-09T01:45:48.454Z,97597.88
2024-05-09T01:48:18.562Z,97586.38
2024-05-09T01:50:48.658Z,97591.13
2024-05-09T01:53:18.778Z,97594.75
2024-05-09T01:55:51.525Z,97599.31
2024-05-09T01:58:21.552Z,97590.50
2024-05-09T02:00:51.592Z,97586.25
2024-05-09T02:03:21.753Z,97589.88
2024-05-09T02:05:52.605Z,97591.94
2024-05-09T02:08:24.087Z,97584.53
2024-05-09T02:10:56.880Z,97585.63
2024-05-09T02:13:26.920Z,97578.81
2024-05-09T02:15:56.908Z,97576.94
2024-05-09T02:18:27.100Z,97581.91
2024-05-09T02:20:57.168Z,97570.81
2024-05-09T02:23:27.287Z,97572.66
2024-05-09T02:26:00.043Z,97567.16
2024-05-09T02:28:30.067Z,97569.16
2024-05-09T02:31:00.092Z,97572.41
2024-05-09T02:33:31.081Z,97562.41
2024-05-09T02:36:01.330Z,97560.50
2024-05-09T02:38:31.830Z,97565.56
2024-05-09T02:41:01.970Z,97557.69
2024-05-09T02:43:32.017Z,97561.94
2024-05-09T02:45:59.397Z,97559.59
2024-05-09T02:48:29.523Z,97550.94
2024-05-09T02:50:57.242Z,97557.06
2024-05-09T02:53:27.308Z,97552.03
2024-05-09T02:55:54.733Z,97559.34
2024-05-09T02:58:27.440Z,97556.66
2024-05-09T03:00:54.944Z,97553.78
2024-05-09T03:03:25.075Z,97561.59
2024-05-09T03:05:52.675Z,97553.22
2024-05-09T03:08:22.771Z,97549.50
2024-05-09T03:10:50.124Z,97553.31
2024-05-09T03:13:20.133Z,97563.47
2024-05-09T03:15:50.126Z,97558.78
2024-05-09T03:18:20.552Z,97548.56
2024-05-09T03:20:47.991Z,97551.28
2024-05-09T03:23:18.309Z,97552.91
2024-05-09T03:25:45.718Z,97546.06
2024-05-09T03:28:22.035Z,97557.06
2024-05-09T03:30:52.099Z,97552.84
2024-05-09T03:33:22.425Z,97549.69
2024-05-09T03:35:50.158Z,97556.28
2024-05-09T03:38:20.158Z,97563.72
2024-05-09T03:40:51.542Z,97565.19
2024-05-09T03:43:22.569Z,97562.84
2024-05-09T03:45:55.806Z,97563.72
2024-05-09T03:48:23.438Z,97565.78
2024-05-09T03:50:53.751Z,97572.09
2024-05-09T03:53:22.950Z,97569.66
2024-05-09T03:55:53.118Z,97547.09
2024-05-09T03:58:20.502Z,97536.53
2024-05-09T04:00:50.565Z,97531.28
2024-05-09T04:03:20.971Z,97538.31
2024-05-09T04:05:51.106Z,97547.84
2024-05-09T04:08:18.547Z,97551.94
2024-05-09T04:10:48.752Z,97549.28
2024-05-09T04:13:16.212Z,97555.84
2024-05-09T04:15:46.180Z,97544.84
2024-05-09T04:18:13.848Z,97550.66
2024-05-09T04:20:46.675Z,97564.50
2024-05-09T04:23:14.947Z,97555.06
2024-05-09T04:25:47.112Z,97564.22
2024-05-09T04:28:14.898Z,97561.22
2024-05-09T04:30:45.069Z,97561.66
2024-05-09T04:33:14.958Z,97550.94
2024-05-09T04:35:49.582Z,97549.94
2024-05-09T04:38:17.120Z,97557.56
2024-05-09T04:40:47.338Z,97550.22
2024-05-09T04:43:16.373Z,97548.41
2024-05-09T04:45:46.442Z,97558.44
2024-05-09T04:48:14.100Z,97558.66
2024-05-09T04:50:47.850Z,97571.84
2024-05-09T04:53:17.731Z,97570.81
2024-05-09T04:55:50.089Z,97570.88
2024-05-09T04:58:17.660Z,97571.72
2024-05-09T05:01:23.972Z,97568.78
2024-05-09T05:03:55.980Z,97572.50
2024-05-09T05:06:35.224Z,97576.66
2024-05-09T05:09:15.642Z,97571.59
2024-05-09T05:11:46.921Z,97579.22
2024-05-09T05:14:14.522Z,97582.91
2024-05-09T05:16:55.225Z,97576.06
2024-05-09T05:19:41.770Z,97581.44
2024-05-09T05:22:15.633Z,97578.84
2024-05-09T05:24:43.642Z,97576.81
2024-05-09T05:27:13.589Z,97585.22
2024-05-09T05:29:47.036Z,97580.00
2024-05-09T05:32:17.265Z,97583.63
2024-05-09T05:34:44.715Z,97587.16
2024-05-09T05:37:17.370Z,97587.94
2024-05-09T05:39:45.435Z,97594.75
2024-05-09T05:42:15.456Z,97598.13
2024-05-09T05:44:42.867Z,97597.09
2024-05-09T05:47:12.931Z,97594.19
2024-05-09T05:49:48.436Z,97595.66
2024-05-09T05:52:21.157Z,97600.41
2024-05-09T05:54:49.662Z,97598.28
2024-05-09T05:57:19.681Z,97605.47
2024-05-09T05:59:47.095Z,97610.16
2024-05-09T06:02:17.307Z,97605.13
2024-05-09T06:04:44.876Z,97606.09
2024-05-09T06:07:14.949Z,97601.34
2024-05-09T06:09:47.522Z,97609.03
2024-05-09T06:12:18.264Z,97603.84
2024-05-09T06:14:45.766Z,97615.72
2024-05-09T06:17:15.799Z,97611.25
2024-05-09T06:19:43.365Z,97618.63
2024-05-09T06:22:13.381Z,97613.34
2024-05-09T06:24:40.765Z,97611.66
2024-05-09T06:27:13.463Z,97605.63
2024-05-09T06:29:40.875Z,97604.06
2024-05-09T06:32:11.073Z,97598.81
2024-05-09T06:34:38.629Z,97601.84
2024-05-09T06:37:13.093Z,97604.53
2024-05-09T06:39:40.503Z,97610.31
2024-05-09T06:42:13.193Z,97616.91
2024-05-09T06:44:40.687Z,97605.13
2024-05-09T06:47:10.776Z,97616.44
2024-05-09T06:49:38.252Z,97612.97
2024-05-09T06:52:09.972Z,97625.06
2024-05-09T06:54:37.741Z,97611.19
2024-05-09T06:57:09.407Z,97614.63
2024-05-09T07:00:22.743Z,97611.06
2024-05-09T07:03:16.531Z,97623.19
2024-05-09T07:06:15.767Z,97616.94
2024-05-09T07:08:53.786Z,97614.88
2024-05-09T07:14:27.153Z,97635.03
2024-05-09T07:18:05.905Z,97622.13
2024-05-09T07:26:44.968Z,97615.25
2024-05-09T07:29:12.518Z,97610.81
2024-05-09T07:31:42.538Z,97609.19
2024-05-09T07:34:11.955Z,97616.31
2024-05-09T07:36:51.462Z,97606.94
2024-05-09T07:39:37.621Z,97604.88
2024-05-09T07:43:03.944Z,97604.34
2024-05-09T07:49:45.387Z,97615.94
2024-05-09T07:53:42.895Z,97610.41
2024-05-09T07:56:18.564Z,97615.44
2024-05-09T07:58:51.224Z,97610.72
2024-05-09T08:01:21.770Z,97613.88
2024-05-09T08:03:58.580Z,97614.66
2024-05-09T08:06:29.355Z,97607.53
2024-05-09T08:08:57.881Z,97615.16
2024-05-09T08:11:29.406Z,97608.59
2024-05-09T08:13:59.403Z,97618.59
2024-05-09T08:16:29.584Z,97623.84
2024-05-09T08:18:59.165Z,97618.84
2024-05-09T08:21:29.788Z,97612.50
2024-05-09T08:23:57.228Z,97613.34
2024-05-09T08:26:27.208Z,97617.53
2024-05-09T08:29:04.363Z,97618.09
2024-05-09T08:31:34.422Z,97614.91
2024-05-09T08:34:02.079Z,97613.03
2024-05-09T08:36:32.246Z,97613.81
2024-05-09T08:38:59.626Z,97610.16
2024-05-09T08:41:30.794Z,97613.19
2024-05-09T08:43:58.672Z,97613.88
2024-05-09T08:46:34.213Z,97604.25
2024-05-09T08:49:03.925Z,97601.50
2024-05-09T08:51:34.488Z,97599.50
2024-05-09T08:54:13.274Z,97602.88
2024-05-09T08:56:48.545Z,97607.38
2024-05-09T08:59:21.312Z,97607.56
2024-05-09T09:01:54.713Z,97607.25
2024-05-09T09:04:25.254Z,97616.88
2024-05-09T09:06:59.211Z,97601.94
2024-05-09T09:09:28.317Z,97613.81
2024-05-09T09:11:58.363Z,97607.28
2024-05-09T09:14:25.784Z,97601.44
2024-05-09T09:17:00.602Z,97608.81
2024-05-09T09:19:28.256Z,97606.38
2024-05-09T09:21:58.706Z,97604.41
2024-05-09T09:24:26.166Z,97597.06
2024-05-09T09:27:00.173Z,97601.81
2024-05-09T09:29:27.822Z,97595.81
2024-05-09T09:32:04.576Z,97600.22
2024-05-09T09:34:32.628Z,97604.50
2024-05-09T09:37:08.244Z,97600.69
2024-05-09T09:39:37.357Z,97603.53
2024-05-09T09:42:17.597Z,97611.13
2024-05-09T09:44:54.638Z,97606.72
2024-05-09T09:47:35.095Z,97603.84
2024-05-09T09:50:20.452Z,97605.13
2024-05-09T09:52:55.159Z,97602.50
2024-05-09T09:55:22.992Z,97608.84
2024-05-09T09:57:53.155Z,97611.38
2024-05-09T10:00:30.158Z,97618.03
2024-05-09T10:03:05.836Z,97608.91
2024-05-09T10:05:45.396Z,97620.28
2024-05-09T10:08:18.780Z,97604.06
2024-05-09T10:10:47.956Z,97610.69
2024-05-09T10:13:19.954Z,97607.84
2024-05-09T10:15:52.518Z,97609.03
2024-05-09T10:18:30.158Z,97610.66
2024-05-09T10:21:20.112Z,97608.59
2024-05-09T10:24:00.752Z,97612.91
2024-05-09T10:26:33.230Z,97609.25
2024-05-09T10:29:03.726Z,97612.69
2024-05-09T10:31:31.203Z,97621.72
2024-05-09T10:34:05.385Z,97612.38
2024-05-09T10:36:32.899Z,97604.16
2024-05-09T10:39:02.913Z,97602.47
2024-05-09T10:41:30.315Z,97601.63
2024-05-09T10:44:00.417Z,97596.16
2024-05-09T10:46:28.665Z,97592.09
2024-05-09T10:49:07.175Z,97591.59
2024-05-09T10:51:35.776Z,97596.03
2024-05-09T10:54:06.145Z,97591.53
2024-05-09T10:56:33.532Z,97587.41
2024-05-09T10:59:06.782Z,97585.03
2024-05-09T11:01:34.381Z,97592.78
2024-05-09T11:04:08.343Z,97591.44
2024-05-09T11:06:46.581Z,97583.38
2024-05-09T11:09:17.712Z,97580.00
2024-05-09T11:11:49.697Z,97579.31
2024-05-09T11:14:20.935Z,97565.88
2024-05-09T11:16:59.771Z,97559.69
2024-05-09T11:19:36.081Z,97552.75
2024-05-09T11:22:03.998Z,97561.00
2024-05-09T11:24:34.289Z,97558.91
2024-05-09T11:27:04.194Z,97553.56
2024-05-09T11:29:41.807Z,97551.72
2024-05-09T11:32:12.149Z,97552.22
2024-05-09T11:34:45.299Z,97555.13
2024-05-09T11:37:13.817Z,97557.84
2024-05-09T11:39:44.022Z,97550.06
2024-05-09T11:42:11.430Z,97556.00
2024-05-09T11:44:41.451Z,97548.75
2024-05-09T11:47:08.876Z,97545.38
2024-05-09T11:49:38.879Z,97540.63
2024-05-09T11:52:09.012Z,97535.72
2024-05-09T11:54:39.048Z,97538.59
2024-05-09T11:57:06.505Z,97521.63
2024-05-09T11:59:36.533Z,97527.09
2024-05-09T12:02:04.582Z,97516.59
2024-05-09T12:04:34.767Z,97523.75
2024-05-09T12:07:02.301Z,97528.75
2024-05-09T12:09:35.049Z,97522.44
2024-05-09T12:12:06.992Z,97514.16
2024-05-09T12:14:37.232Z,97516.44
2024-05-09T12:17:05.688Z,97516.53
2024-05-09T12:19:36.047Z,97509.66
2024-05-09T12:22:08.808Z,97504.78
2024-05-09T12:24:41.644Z,97503.63
2024-05-09T12:27:09.081Z,97508.09
2024-05-09T12:29:39.143Z,97501.16
2024-05-09T12:32:07.539Z,97495.13
2024-05-09T12:34:37.734Z,97497.59
2024-05-09T12:37:05.461Z,97490.56
2024-05-09T12:39:35.554Z,97483.94
2024-05-09T12:42:16.608Z,97490.44
2024-05-09T12:44:52.137Z,97497.38
2024-05-09T12:47:19.709Z,97497.19
2024-05-09T12:49:49.804Z,97489.28
2024-05-09T12:52:17.327Z,97494.66
2024-05-09T12:54:47.330Z,97479.34
2024-05-09T12:57:17.424Z,97488.31
2024-05-09T12:59:47.568Z,97483.38
2024-05-09T13:02:15.901Z,97480.66
2024-05-09T13:04:46.148Z,97481.09
2024-05-09T13:07:13.833Z,97470.88
2024-05-09T13:09:44.087Z,97466.78
2024-05-09T13:12:11.538Z,97475.72
2024-05-09T13:14:44.159Z,97474.97
2024-05-09T13:17:11.763Z,97469.59
2024-05-09T13:19:41.836Z,97465.50
2024-05-09T13:22:09.335Z,97461.94
2024-05-09T13:24:39.589Z,97460.00
2024-05-09T13:27:07.055Z,97450.25
2024-05-09T13:29:38.087Z,97462.69
2024-05-09T13:32:09.343Z,97435.88
2024-05-09T13:34:39.496Z,97444.91
2024-05-09T13:37:07.007Z,97443.25
2024-05-09T13:39:37.664Z,97452.78
2024-05-09T13:42:05.672Z,97437.41
2024-05-09T13:44:35.859Z,97432.03
2024-05-09T13:47:03.351Z,97441.94
2024-05-09T13:49:36.186Z,97440.47
2024-05-09T13:52:03.772Z,97440.13
2024-05-09T13:54:33.855Z,97437.38
2024-05-09T13:57:01.393Z,97430.75
2024-05-09T13:59:32.349Z,97439.09
2024-05-09T14:01:59.866Z,97442.63
2024-05-09T14:04:30.204Z,97428.06
2024-05-09T14:07:00.544Z,97422.28
2024-05-09T14:09:30.992Z,97424.94
2024-05-09T14:11:58.525Z,97428.47
2024-05-09T14:14:28.592Z,97424.31
2024-05-09T14:16:56.069Z,97418.75
2024-05-09T14:19:26.102Z,97428.00
2024-05-09T14:21:53.592Z,97422.81
2024-05-09T14:24:26.298Z,97417.44
2024-05-09T14:26:53.904Z,97395.78
2024-05-09T14:29:23.919Z,97416.72
2024-05-09T14:31:51.307Z,97416.56
2024-05-09T14:34:21.510Z,97415.16
2024-05-09T14:36:58.778Z,97404.53
2024-05-09T14:39:31.487Z,97408.59
2024-05-09T14:41:58.873Z,97403.66
2024-05-09T14:44:28.876Z,97413.28
2024-05-09T14:46:56.392Z,97404.78
2024-05-09T14:49:26.429Z,97402.72
2024-05-09T14:51:54.028Z,97408.06
2024-05-09T14:54:24.257Z,97401.59
2024-05-09T14:56:55.133Z,97398.94
2024-05-09T14:59:25.226Z,97398.78
2024-05-09T15:01:52.724Z,97408.66
2024-05-09T15:04:24.947Z,97399.59
2024-05-09T15:06:53.460Z,97398.50
2024-05-09T15:09:23.475Z,97396.81
2024-05-09T15:11:54.022Z,97398.88
2024-05-09T15:14:31.117Z,97402.75
2024-05-09T15:16:58.533Z,97397.44
2024-05-09T15:19:28.840Z,97389.16
2024-05-09T15:21:56.404Z,97393.72
2024-05-09T15:24:26.726Z,97386.81
2024-05-09T15:26:56.831Z,97387.41
2024-05-09T15:29:26.914Z,97399.88
2024-05-09T15:31:54.354Z,97382.09
2024-05-09T15:34:24.483Z,97379.59
2024-05-09T15:36:52.071Z,97378.91
2024-05-09T15:39:24.449Z,97392.72
2024-05-09T15:41:53.135Z,97383.63
2024-05-09T15:44:25.725Z,97384.47
2024-05-09T15:46:53.389Z,97389.56
2024-05-09T15:49:24.268Z,97388.69
2024-05-09T15:51:51.755Z,97383.63
2024-05-09T15:54:22.979Z,97385.22
2024-05-09T15:56:51.719Z,97386.03
2024-05-09T15:59:21.842Z,97391.16
2024-05-09T16:01:51.907Z,97383.16
2024-05-09T16:04:22.407Z,97383.94
2024-05-09T16:06:49.938Z,97381.75
2024-05-09T16:09:21.244Z,97382.69
2024-05-09T16:11:49.793Z,97385.53
2024-05-09T16:14:19.793Z,97378.75
2024-05-09T16:16:47.591Z,97380.28
2024-05-09T16:19:20.473Z,97373.44
2024-05-09T16:21:48.003Z,97376.25
2024-05-09T16:24:18.188Z,97378.47
2024-05-09T16:26:47.515Z,97372.00
2024-05-09T16:29:18.578Z,97373.00
2024-05-09T16:31:45.947Z,97375.97
2024-05-09T16:34:16.200Z,97370.19
2024-05-09T16:36:46.411Z,97374.91
2024-05-09T16:39:17.453Z,97376.13
2024-05-09T16:41:45.078Z,97370.47
2024-05-09T16:44:15.087Z,97371.41
2024-05-09T16:46:42.499Z,97372.47
2024-05-09T16:49:13.241Z,97375.03
2024-05-09T16:51:40.680Z,97371.47
2024-05-09T16:54:13.328Z,97369.41
2024-05-09T16:56:40.809Z,97365.19
2024-05-09T16:59:10.879Z,97366.84
2024-05-09T17:01:38.386Z,97364.84
2024-05-09T17:04:08.786Z,97371.78
2024-05-09T17:06:36.413Z,97373.19
2024-05-09T17:09:18.024Z,97368.53
2024-05-09T17:11:46.848Z,97368.47
2024-05-09T17:14:17.485Z,97371.41
2024-05-09T17:16:48.599Z,97372.47
2024-05-09T17:19:18.983Z,97380.22
2024-05-09T17:21:46.574Z,97376.72
2024-05-09T17:24:19.425Z,97381.25
2024-05-09T17:26:48.577Z,97375.28
2024-05-09T17:29:18.684Z,97382.00
2024-05-09T17:31:46.910Z,97382.00
2024-05-09T17:34:17.003Z,97373.53
2024-05-09T17:37:00.450Z,97392.44
2024-05-09T17:39:33.322Z,97388.69
2024-05-09T17:42:00.859Z,97391.34
2024-05-09T17:44:30.837Z,97389.59
2024-05-09T17:46:58.270Z,97398.81
2024-05-09T17:49:28.453Z,97394.16
2024-05-09T17:51:56.278Z,97396.94
2024-05-09T17:54:26.472Z,97393.38
2024-05-09T17:56:58.734Z,97397.00
2024-05-09T17:59:29.270Z,97391.44
2024-05-09T18:01:56.704Z,97398.06
2024-05-09T18:04:29.643Z,97395.78
2024-05-09T18:06:58.366Z,97405.34
2024-05-09T18:09:28.480Z,97404.56
2024-05-09T18:11:58.631Z,97401.41
2024-05-09T18:14:29.339Z,97402.53
2024-05-09T18:16:56.699Z,97407.16
2024-05-09T18:19:26.870Z,97412.59
2024-05-09T18:21:54.421Z,97407.84
2024-05-09T18:24:24.727Z,97407.78
2024-05-09T18:26:52.124Z,97399.75
2024-05-09T18:29:24.798Z,97399.25
2024-05-09T18:31:52.293Z,97401.69
2024-05-09T18:34:22.311Z,97401.56
2024-05-09T18:36:49.813Z,97409.66
2024-05-09T18:39:20.079Z,97397.56
2024-05-09T18:41:51.215Z,97400.34
2024-05-09T18:44:21.227Z,97414.47
2024-05-09T18:46:51.292Z,97413.94
2024-05-09T18:49:18.919Z,97407.75
2024-05-09T18:51:49.398Z,97405.16
2024-05-09T18:54:16.821Z,97403.00
2024-05-09T18:56:46.856Z,97410.22
2024-05-09T18:59:14.269Z,97409.25
2024-05-09T19:01:47.024Z,97396.50
2024-05-09T19:04:18.328Z,97405.16
2024-05-09T19:06:49.100Z,97408.88
2024-05-09T19:09:16.465Z,97412.66
2024-05-09T19:11:46.667Z,97415.44
2024-05-09T19:14:14.058Z,97416.53
2024-05-09T19:16:47.148Z,97421.63
2024-05-09T19:19:15.074Z,97419.19
2024-05-09T19:21:45.311Z,97425.03
2024-05-09T19:24:12.811Z,97434.84
2024-05-09T19:26:42.944Z,97429.38
2024-05-09T19:29:10.471Z,97439.00
2024-05-09T19:31:40.449Z,97442.31
2024-05-09T19:34:10.559Z,97444.00
2024-05-09T19:36:40.857Z,97434.56
2024-05-09T19:39:08.254Z,97440.56
2024-05-09T19:41:38.346Z,97444.72
2024-05-09T19:44:06.135Z,97446.91
2024-05-09T19:46:36.348Z,97442.00
2024-05-09T19:49:05.807Z,97456.84
2024-05-09T19:51:39.122Z,97442.06
2024-05-09T19:54:06.535Z,97441.53
2024-05-09T19:56:36.788Z,97444.50
2024-05-09T19:59:04.253Z,97447.03
2024-05-09T20:01:34.396Z,97448.06
2024-05-09T20:04:02.172Z,97448.72
2024-05-09T20:06:32.439Z,97453.03
2024-05-09T20:09:02.607Z,97454.75
2024-05-09T20:11:33.297Z,97451.94
2024-05-09T20:14:00.792Z,97448.59
2024-05-09T20:16:31.102Z,97449.75
2024-05-09T20:18:58.589Z,97441.34
2024-05-09T20:21:28.649Z,97453.81
2024-05-09T20:23:56.201Z,97453.03
2024-05-09T20:26:30.831Z,97451.78
2024-05-09T20:28:58.508Z,97459.97
2024-05-09T20:31:28.525Z,97453.16
2024-05-09T20:33:56.081Z,97455.81
2024-05-09T20:36:26.191Z,97464.28
2024-05-09T20:38:56.028Z,97448.47
2024-05-09T20:41:28.657Z,97457.66
2024-05-09T20:43:58.145Z,97449.50
2024-05-09T20:46:28.190Z,97447.13
2024-05-09T20:48:56.460Z,97445.28
2024-05-09T20:51:27.634Z,97449.78
2024-05-09T20:53:56.179Z,97448.44
2024-05-09T20:56:28.831Z,97446.56
2024-05-09T20:58:56.960Z,97435.22
2024-05-09T21:01:28.096Z,97438.09
2024-05-09T21:03:55.629Z,97427.28
2024-05-09T21:06:25.770Z,97436.22
2024-05-09T21:08:53.116Z,97428.81
2024-05-09T21:11:25.065Z,97424.03
2024-05-09T21:13:55.314Z,97408.78
2024-05-09T21:16:25.508Z,97419.31
2024-05-09T21:18:53.051Z,97416.09
2024-05-09T21:21:23.082Z,97406.09
2024-05-09T21:23:54.179Z,97418.66
2024-05-09T21:26:24.903Z,97406.00
2024-05-09T21:28:55.127Z,97403.63
2024-05-09T21:31:29.699Z,97409.94
2024-05-09T21:34:03.444Z,97413.41
2024-05-09T21:36:33.550Z,97419.44
2024-05-09T21:39:00.977Z,97410.72
2024-05-09T21:41:38.972Z,97403.88
2024-05-09T21:44:09.027Z,97408.88
2024-05-09T21:46:39.179Z,97407.28
2024-05-09T21:49:06.700Z,97401.16
2024-05-09T21:51:36.792Z,97402.19
2024-05-09T21:54:04.981Z,97399.31
2024-05-09T21:56:34.937Z,97400.59
2024-05-09T21:59:02.288Z,97395.31
2024-05-09T22:01:35.953Z,97398.94
2024-05-09T22:04:03.715Z,97406.53
2024-05-09T22:06:34.044Z,97396.06
2024-05-09T22:09:05.838Z,97398.38
2024-05-09T22:11:35.842Z,97400.47
2024-05-09T22:14:03.221Z,97391.72
2024-05-09T22:16:35.955Z,97391.66
2024-05-09T22:19:03.522Z,97384.00
2024-05-09T22:21:33.575Z,97392.25
2024-05-09T22:24:01.407Z,97383.56
2024-05-09T22:26:31.452Z,97390.59
2024-05-09T22:29:02.056Z,97401.09
2024-05-09T22:31:32.210Z,97396.91
2024-05-09T22:34:03.021Z,97389.25
2024-05-09T22:36:33.299Z,97390.03
2024-05-09T22:39:00.760Z,97386.22
2024-05-09T22:41:30.781Z,97377.28
2024-05-09T22:43:58.586Z,97377.47
2024-05-09T22:46:28.778Z,97371.31
2024-05-09T22:48:56.464Z,97369.47
2024-05-09T22:51:29.138Z,97367.63
2024-05-09T22:53:56.640Z,97368.91
2024-05-09T22:56:30.071Z,97357.56
2024-05-09T22:58:58.034Z,97354.16
2024-05-09T23:01:28.160Z,97358.53
2024-05-09T23:03:55.838Z,97355.84
2024-05-09T23:06:28.633Z,97350.03
2024-05-09T23:08:56.065Z,97345.25
2024-05-09T23:11:26.273Z,97344.44
2024-05-09T23:13:53.786Z,97349.44
2024-05-09T23:16:23.958Z,97348.84
2024-05-09T23:18:51.423Z,97345.41
2024-05-09T23:21:21.480Z,97345.38
2024-05-09T23:24:04.582Z,97341.88
2024-05-09T23:26:34.755Z,97331.53
2024-05-09T23:29:02.325Z,97328.13
2024-05-09T23:31:32.313Z,97333.00
2024-05-09T23:34:00.021Z,97332.88
2024-05-09T23:36:30.793Z,97321.06
2024-05-09T23:38:58.195Z,97343.94
2024-05-09T23:41:30.877Z,97331.31
2024-05-09T23:43:58.239Z,97329.75
2024-05-09T23:46:28.548Z,97327.06
2024-05-09T23:48:56.128Z,97315.97
2024-05-09T23:51:26.263Z,97311.38
2024-05-09T23:53:53.638Z,97312.78
2024-05-09T23:56:24.892Z,97299.47
2024-05-09T23:58:55.038Z,97301.22
